METAR Data
IDs: Format: Raw Decoded Include TAF

Data at: 2218 UTC 29 May 2020

PAGK 292153Z AUTO 14005KT 10SM CLR 21/03 A2988 RMK AO2 SLP124 T02060033 TSNO $